Terminal Aerodrome Forecast
Issued by NWS

Home | Current Version | Previous Version | Text Only | Print | Product List | Glossary On
Versions: 1 2 3 4 5 6 7 8 9 10 11 12
000
FTUS46 KSTO 201100
TAFRBL
TAF
KRBL 201123Z 2012/2112 16010KT P6SM FEW050 BKN150
     FM201600 16012KT P6SM -RA SCT025 OVC050
      TEMPO 2020/2024 5SM RA SCT015 OVC025
     FM210300 18004KT P6SM BKN040 OVC100
     FM210900 00000KT P6SM SCT250=

USA.gov is the U.S. government's official web portal to all federal, state and local government web resources and services.